KSDL

Details ICAO KSDL (ZSY)
Name SCOTTSDALE
Region United States
Timezone America/Phoenix (UTC-7.0)
Plans Departing 106
Arriving 101
Stats Elevation 1,510 ft / 460 m (AMSL)
Location 33.622881° -111.910535°
Runways 1
Magnetic Variation 10.271° E
Sunrise 2018-05-28 12:21:12 UTC / 2018-05-28 05:21:12 Local
Sunset 2018-05-29 02:31:36 UTC / 2018-05-28 19:31:36 Local
Advertisement - Login to hide

Runways

ID Width Length Bearing (true) Bearing (mag) Surface Threshold Offset Overrun Length
03 100 ft / 30 m 8,253 ft / 2,516 m 43.82° 33.55° Asphalt 740 ft / 226 m 0 ft / 0 m
21 100 ft / 30 m 8,253 ft / 2,516 m 223.83° 213.56° Asphalt 400 ft / 122 m 0 ft / 0 m

Map

Weather


0- 5 10 15 20 25 30 35+ Temperature / ° C

Clouds and Precipitation
Forecast for 2018-05-28 00:00 UTC. Updated 10 hours ago

Ground ~20,000 ft ~40,000 ft Winds

METAR

Not found

TAF

KSDL 272338Z 2800/2824 23006KT P6SM SKC FM280400 VRB03KT P6SM SKC FM282000 25005KT P6SM SKC

Frequencies

Recorded 118.60 MHz ATIS
Clearance 124.80 MHz CLNC DEL
Tower 119.90 MHz TWR
Unicom 119.90 MHz CTAF
Ground 121.60 MHz GND
Approach 120.70 MHz PHOENIX APP/DEP
Warning: Do not use this data for real-world aviation or navigation. No guarantee of current accuracy is given.